Time;durP1;ratioP1;P1;durP2;ratioP2;P2;SDS_P1;SDS_P2;PMS_P1;PMS_P2;Temp;Humidity;BMP_temperature;BMP_pressure;BME280_temperature;BME280_humidity;BME280_pressure;Samples;Min_cycle;Max_cycle;Signal;HPM_P1;HPM_P2
2022/01/27 00:02:51;;;;;;;18.27;11.35;;;;;;;;;;5012223;28;20104;-81
2022/01/27 00:05:20;;;;;;;17.02;11.52;;;;;;;;;;5066689;28;20060;-79
2022/01/27 00:13:01;;;;;;;15.38;9.88;;;;;;;;;;5073974;28;20024;-80
2022/01/27 00:15:31;;;;;;;16.00;9.25;;;;;;;;;;5073712;28;20028;-80
2022/01/27 00:18:02;;;;;;;17.90;11.48;;;;;;;;;;5073902;28;20025;-80
2022/01/27 00:20:28;;;;;;;14.63;9.70;;;;;;;;;;5073883;28;20032;-79
2022/01/27 00:22:54;;;;;;;15.77;9.38;;;;;;;;;;5074107;28;20138;-80
2022/01/27 00:25:20;;;;;;;17.33;10.65;;;;;;;;;;5073738;28;20073;-82
2022/01/27 00:27:47;;;;;;;16.42;11.10;;;;;;;;;;5073932;28;20025;-81
2022/01/27 00:30:13;;;;;;;15.23;10.10;;;;;;;;;;5073377;28;20098;-80
2022/01/27 00:32:40;;;;;;;17.10;11.13;;;;;;;;;;5073668;28;20033;-81
2022/01/27 00:35:06;;;;;;;19.73;13.15;;;;;;;;;;5073399;28;20028;-80
2022/01/27 00:37:33;;;;;;;16.05;10.77;;;;;;;;;;5073451;28;20047;-80
2022/01/27 00:39:59;;;;;;;16.13;10.70;;;;;;;;;;5073590;28;20498;-80
2022/01/27 00:42:27;;;;;;;19.83;12.43;;;;;;;;;;5071991;28;20439;-81
2022/01/27 00:44:54;;;;;;;18.10;12.32;;;;;;;;;;5073360;28;20402;-80
2022/01/27 00:47:21;;;;;;;17.20;11.23;;;;;;;;;;5071860;28;20394;-80
2022/01/27 00:49:47;;;;;;;14.52;10.85;;;;;;;;;;5072985;28;20109;-81
2022/01/27 00:52:20;;;;;;;17.52;11.15;;;;;;;;;;5072959;28;20036;-81
2022/01/27 00:54:47;;;;;;;14.75;9.70;;;;;;;;;;5073021;28;20707;-81
2022/01/27 00:57:37;;;;;;;17.05;11.82;;;;;;;;;;5073023;28;20438;-83
2022/01/27 01:00:05;;;;;;;16.30;11.80;;;;;;;;;;5072897;28;20085;-81
2022/01/27 01:02:59;;;;;;;17.10;12.10;;;;;;;;;;5074544;28;20024;-83
2022/01/27 01:07:52;;;;;;;19.10;12.48;;;;;;;;;;5081823;28;20027;-80
2022/01/27 01:15:48;;;;;;;15.85;10.45;;;;;;;;;;5080319;28;20051;-80
2022/01/27 01:21:15;;;;;;;16.27;10.85;;;;;;;;;;5079584;28;20085;-81
2022/01/27 01:29:27;;;;;;;17.57;12.40;;;;;;;;;;5072581;28;19915;-80
2022/01/27 01:32:26;;;;;;;17.38;11.35;;;;;;;;;;5078646;28;20056;-81
2022/01/27 01:35:00;;;;;;;17.38;11.55;;;;;;;;;;5080237;28;20072;-82
2022/01/27 01:37:37;;;;;;;15.82;9.95;;;;;;;;;;5082579;28;20107;-79
2022/01/27 01:40:08;;;;;;;15.52;10.65;;;;;;;;;;5078737;28;20052;-80
2022/01/27 01:42:34;;;;;;;14.77;10.93;;;;;;;;;;5081515;28;20027;-81
2022/01/27 01:45:08;;;;;;;15.30;10.63;;;;;;;;;;5072548;28;20052;-81
2022/01/27 01:47:34;;;;;;;19.80;11.20;;;;;;;;;;5072706;28;20112;-81
2022/01/27 01:50:00;;;;;;;16.63;11.55;;;;;;;;;;5072026;28;20080;-82
2022/01/27 01:52:26;;;;;;;19.17;11.80;;;;;;;;;;5072523;28;20032;-83
2022/01/27 01:54:54;;;;;;;14.10;10.45;;;;;;;;;;5071144;28;20024;-82
2022/01/27 01:57:20;;;;;;;19.98;13.02;;;;;;;;;;5071022;28;20021;-80
2022/01/27 01:59:47;;;;;;;18.65;12.20;;;;;;;;;;5072306;28;20111;-81
2022/01/27 02:02:13;;;;;;;16.40;11.18;;;;;;;;;;5072224;28;20024;-81
2022/01/27 02:04:43;;;;;;;21.35;12.93;;;;;;;;;;5072370;28;20499;-81
2022/01/27 02:07:22;;;;;;;20.08;13.25;;;;;;;;;;5072142;28;20055;-81
2022/01/27 02:10:08;;;;;;;19.58;12.27;;;;;;;;;;5071328;28;20406;-81
2022/01/27 02:18:08;;;;;;;19.42;13.13;;;;;;;;;;5073012;28;20119;-82
2022/01/27 02:20:39;;;;;;;18.67;11.90;;;;;;;;;;5075059;28;20041;-82
2022/01/27 02:23:07;;;;;;;25.52;17.10;;;;;;;;;;5076246;28;20024;-81
2022/01/27 02:25:33;;;;;;;29.90;20.20;;;;;;;;;;5075005;28;20027;-81
2022/01/27 02:27:59;;;;;;;23.58;17.08;;;;;;;;;;5076273;28;20024;-84
2022/01/27 02:30:26;;;;;;;25.88;17.20;;;;;;;;;;5074746;28;20161;-83
2022/01/27 02:32:52;;;;;;;20.05;13.98;;;;;;;;;;5074857;28;20434;-83
2022/01/27 02:35:21;;;;;;;19.77;12.32;;;;;;;;;;5075840;28;20028;-83
2022/01/27 02:37:47;;;;;;;18.75;12.88;;;;;;;;;;5075922;28;20027;-80
2022/01/27 02:40:19;;;;;;;19.15;11.95;;;;;;;;;;5075811;28;20051;-80
2022/01/27 02:42:46;;;;;;;18.27;12.43;;;;;;;;;;5075913;28;20024;-81
2022/01/27 02:45:22;;;;;;;19.95;12.27;;;;;;;;;;5075699;28;20424;-80
2022/01/27 02:47:48;;;;;;;19.20;11.27;;;;;;;;;;5075779;28;20402;-83
2022/01/27 02:50:14;;;;;;;17.95;12.05;;;;;;;;;;5075331;28;20491;-81
2022/01/27 02:52:40;;;;;;;15.70;11.13;;;;;;;;;;5074467;28;20031;-80
2022/01/27 02:55:07;;;;;;;20.20;13.93;;;;;;;;;;5075563;28;20031;-82
2022/01/27 02:57:33;;;;;;;19.50;13.38;;;;;;;;;;5075848;28;20158;-80
2022/01/27 02:59:59;;;;;;;19.50;13.32;;;;;;;;;;5074239;28;20406;-81
2022/01/27 03:02:25;;;;;;;21.30;13.90;;;;;;;;;;5075647;28;20048;-82
2022/01/27 03:04:52;;;;;;;16.70;12.13;;;;;;;;;;5075432;28;20020;-82
2022/01/27 03:07:18;;;;;;;17.13;12.18;;;;;;;;;;5073964;28;20032;-81
2022/01/27 03:09:44;;;;;;;16.45;11.25;;;;;;;;;;5075286;28;20052;-83
2022/01/27 03:12:11;;;;;;;17.48;11.90;;;;;;;;;;5075187;28;20036;-80
2022/01/27 03:14:38;;;;;;;16.63;11.95;;;;;;;;;;5075354;28;20506;-80
2022/01/27 03:17:05;;;;;;;17.13;11.02;;;;;;;;;;5075106;28;20491;-83
2022/01/27 03:19:31;;;;;;;18.80;12.63;;;;;;;;;;5075351;28;20548;-81
2022/01/27 03:21:58;;;;;;;21.20;13.77;;;;;;;;;;5075049;28;20082;-80
2022/01/27 03:24:25;;;;;;;19.27;12.65;;;;;;;;;;5075036;28;20071;-80
2022/01/27 03:26:53;;;;;;;21.83;13.43;;;;;;;;;;5075028;28;20017;-81
2022/01/27 03:29:20;;;;;;;18.52;13.13;;;;;;;;;;5074566;28;20016;-80
2022/01/27 03:31:46;;;;;;;19.20;12.75;;;;;;;;;;5074188;28;20079;-82
2022/01/27 03:34:13;;;;;;;20.27;13.18;;;;;;;;;;5074527;28;20031;-82
2022/01/27 03:36:39;;;;;;;16.48;11.77;;;;;;;;;;5075036;28;20109;-82
2022/01/27 03:39:07;;;;;;;18.73;11.98;;;;;;;;;;5074712;28;20028;-80
2022/01/27 03:41:34;;;;;;;19.60;13.65;;;;;;;;;;5074977;28;20024;-82
2022/01/27 03:44:01;;;;;;;18.92;13.13;;;;;;;;;;5074776;28;20044;-80
2022/01/27 03:46:27;;;;;;;20.75;14.43;;;;;;;;;;5074612;28;20103;-81
2022/01/27 03:48:53;;;;;;;19.58;13.30;;;;;;;;;;5074336;28;20045;-82
2022/01/27 03:51:19;;;;;;;22.30;15.02;;;;;;;;;;5074425;28;20040;-83
2022/01/27 03:53:46;;;;;;;23.55;14.82;;;;;;;;;;5074535;28;20025;-79
2022/01/27 03:56:12;;;;;;;22.45;14.05;;;;;;;;;;5074321;28;20017;-81
2022/01/27 03:58:38;;;;;;;19.02;12.65;;;;;;;;;;5074730;28;20028;-79
2022/01/27 04:01:05;;;;;;;19.45;12.68;;;;;;;;;;5074345;28;20025;-81
2022/01/27 04:03:33;;;;;;;22.27;14.75;;;;;;;;;;5074437;28;20074;-81
2022/01/27 04:06:06;;;;;;;26.20;15.95;;;;;;;;;;5074294;28;20391;-80
2022/01/27 04:08:32;;;;;;;21.45;13.07;;;;;;;;;;5074376;28;20040;-82
2022/01/27 04:11:01;;;;;;;18.40;12.02;;;;;;;;;;5074184;28;20427;-81
2022/01/27 04:13:28;;;;;;;18.10;12.55;;;;;;;;;;5072798;28;20028;-81
2022/01/27 04:15:54;;;;;;;21.23;12.30;;;;;;;;;;5074118;28;20025;-82
2022/01/27 04:18:20;;;;;;;17.33;11.95;;;;;;;;;;5074010;28;20028;-82
2022/01/27 04:20:46;;;;;;;19.95;12.88;;;;;;;;;;5074138;28;20028;-81
2022/01/27 04:23:12;;;;;;;21.45;13.43;;;;;;;;;;5073727;28;20031;-81
2022/01/27 04:25:39;;;;;;;18.45;12.93;;;;;;;;;;5073843;28;20053;-83
2022/01/27 04:28:09;;;;;;;18.33;12.23;;;;;;;;;;5073774;28;20082;-80
2022/01/27 04:30:35;;;;;;;17.20;11.48;;;;;;;;;;5073856;28;20467;-80
2022/01/27 04:33:03;;;;;;;17.42;12.30;;;;;;;;;;5073643;28;20020;-80
2022/01/27 04:35:33;;;;;;;20.40;13.63;;;;;;;;;;5073642;28;20060;-82
2022/01/27 04:40:41;;;;;;;17.17;12.63;;;;;;;;;;5073642;28;20100;-80
2022/01/27 04:46:05;;;;;;;17.83;13.20;;;;;;;;;;5073598;28;20027;-82
2022/01/27 04:48:39;;;;;;;19.67;13.00;;;;;;;;;;5071703;28;20039;-81
2022/01/27 04:51:11;;;;;;;19.50;12.95;;;;;;;;;;5073283;28;20064;-81
2022/01/27 04:53:50;;;;;;;33.13;18.67;;;;;;;;;;5073096;28;20467;-83
2022/01/27 04:56:17;;;;;;;23.58;12.70;;;;;;;;;;5073208;28;20031;-81
2022/01/27 04:58:46;;;;;;;21.02;14.80;;;;;;;;;;5073371;28;20028;-81
2022/01/27 05:01:13;;;;;;;21.40;13.80;;;;;;;;;;5072821;28;20495;-83
2022/01/27 05:03:54;;;;;;;19.10;13.43;;;;;;;;;;5073276;28;20025;-81
2022/01/27 05:06:21;;;;;;;18.95;12.13;;;;;;;;;;5072671;28;20107;-80
2022/01/27 05:08:47;;;;;;;20.15;13.95;;;;;;;;;;5073022;28;20036;-81
2022/01/27 05:11:23;;;;;;;25.50;14.82;;;;;;;;;;5074213;28;20110;-83
2022/01/27 05:13:57;;;;;;;21.27;15.15;;;;;;;;;;5072938;28;20028;-81
2022/01/27 05:16:23;;;;;;;13.90;10.57;;;;;;;;;;5072831;28;20038;-81
2022/01/27 05:18:50;;;;;;;22.30;14.30;;;;;;;;;;5071592;28;20425;-80
2022/01/27 05:21:16;;;;;;;18.90;13.43;;;;;;;;;;5073502;28;20032;-82
2022/01/27 05:23:42;;;;;;;22.30;14.57;;;;;;;;;;5073511;28;20052;-81
2022/01/27 05:26:08;;;;;;;21.50;13.20;;;;;;;;;;5072562;28;20490;-80
2022/01/27 05:28:34;;;;;;;20.00;13.60;;;;;;;;;;5073011;28;20028;-79
2022/01/27 05:31:01;;;;;;;21.08;13.20;;;;;;;;;;5072845;28;20467;-81
2022/01/27 05:33:28;;;;;;;21.95;13.50;;;;;;;;;;5073126;28;20062;-81
2022/01/27 05:35:54;;;;;;;20.17;13.38;;;;;;;;;;5074437;28;20028;-82
2022/01/27 05:38:20;;;;;;;20.88;13.00;;;;;;;;;;5073042;28;20502;-82
2022/01/27 05:40:46;;;;;;;25.33;14.80;;;;;;;;;;5073456;28;20028;-81
2022/01/27 05:43:13;;;;;;;23.30;15.65;;;;;;;;;;5073372;28;20027;-82
2022/01/27 05:45:39;;;;;;;23.60;16.15;;;;;;;;;;5073601;28;20114;-81
2022/01/27 05:48:05;;;;;;;21.67;13.73;;;;;;;;;;5073226;28;20034;-82
2022/01/27 05:50:32;;;;;;;19.73;12.85;;;;;;;;;;5074460;28;20444;-82
2022/01/27 05:52:58;;;;;;;23.20;14.93;;;;;;;;;;5073799;28;20034;-80
2022/01/27 05:55:25;;;;;;;22.48;14.40;;;;;;;;;;5073699;28;20056;-82
2022/01/27 05:57:51;;;;;;;21.60;16.05;;;;;;;;;;5073764;28;20027;-81
2022/01/27 06:00:18;;;;;;;22.27;15.15;;;;;;;;;;5072304;28;20033;-82
2022/01/27 06:02:44;;;;;;;22.33;14.80;;;;;;;;;;5071111;28;20033;-81
2022/01/27 06:05:11;;;;;;;21.83;15.43;;;;;;;;;;5070683;28;20391;-81
2022/01/27 06:07:37;;;;;;;29.33;17.83;;;;;;;;;;5072379;28;20103;-82
2022/01/27 06:10:03;;;;;;;27.85;17.75;;;;;;;;;;5072099;28;20510;-83
2022/01/27 06:12:29;;;;;;;28.50;17.60;;;;;;;;;;5072252;28;20058;-82
2022/01/27 06:14:56;;;;;;;28.05;17.67;;;;;;;;;;5067019;28;20421;-81
2022/01/27 06:17:22;;;;;;;24.63;17.83;;;;;;;;;;5061582;28;20171;-82
2022/01/27 06:19:49;;;;;;;28.55;18.42;;;;;;;;;;5071995;28;20055;-81
2022/01/27 06:22:15;;;;;;;30.23;19.13;;;;;;;;;;5071605;28;20111;-83
2022/01/27 06:24:42;;;;;;;31.38;20.60;;;;;;;;;;5071806;28;20028;-82
2022/01/27 06:27:09;;;;;;;28.35;18.65;;;;;;;;;;5068681;28;20025;-83
2022/01/27 06:29:36;;;;;;;29.20;18.60;;;;;;;;;;5070926;28;20081;-81
2022/01/27 06:32:03;;;;;;;22.33;15.98;;;;;;;;;;5071227;28;20037;-82
2022/01/27 06:34:29;;;;;;;20.83;13.95;;;;;;;;;;5073353;28;20395;-83
2022/01/27 06:36:55;;;;;;;24.67;14.85;;;;;;;;;;5071250;28;20421;-82
2022/01/27 06:39:21;;;;;;;23.63;16.05;;;;;;;;;;5068846;28;20036;-83
2022/01/27 06:41:49;;;;;;;22.15;15.20;;;;;;;;;;5070887;28;20040;-85
2022/01/27 06:44:15;;;;;;;24.98;16.92;;;;;;;;;;5071853;28;20053;-79
2022/01/27 06:46:41;;;;;;;30.63;21.52;;;;;;;;;;5070355;28;20032;-79
2022/01/27 06:49:08;;;;;;;30.33;21.55;;;;;;;;;;5069147;28;20045;-80
2022/01/27 06:51:34;;;;;;;32.35;21.75;;;;;;;;;;5069047;28;20452;-80
2022/01/27 06:54:00;;;;;;;28.23;18.95;;;;;;;;;;5070285;28;20127;-81
2022/01/27 06:56:26;;;;;;;30.13;18.65;;;;;;;;;;5071420;28;20055;-82
2022/01/27 06:58:53;;;;;;;24.58;16.70;;;;;;;;;;5071330;28;20551;-81
2022/01/27 07:01:19;;;;;;;30.90;20.73;;;;;;;;;;5069093;28;20029;-81
2022/01/27 07:03:46;;;;;;;35.60;21.98;;;;;;;;;;5070297;28;20110;-81
2022/01/27 07:06:12;;;;;;;32.97;21.20;;;;;;;;;;5072811;28;20033;-79
2022/01/27 07:08:39;;;;;;;27.35;18.98;;;;;;;;;;5073848;28;20029;-80
2022/01/27 07:11:05;;;;;;;28.02;18.55;;;;;;;;;;5073278;28;20054;-81
2022/01/27 07:13:31;;;;;;;22.88;16.50;;;;;;;;;;5074121;28;20520;-82
2022/01/27 07:15:58;;;;;;;23.00;16.52;;;;;;;;;;5072216;28;20040;-79
2022/01/27 07:18:24;;;;;;;26.02;17.05;;;;;;;;;;5074078;28;20039;-81
2022/01/27 07:23:37;;;;;;;26.05;17.23;;;;;;;;;;5071596;28;20067;-80
2022/01/27 07:26:03;;;;;;;29.40;19.17;;;;;;;;;;5072281;28;20024;-80
2022/01/27 07:28:30;;;;;;;27.33;18.90;;;;;;;;;;5073342;28;20033;-81
2022/01/27 07:30:56;;;;;;;27.45;18.13;;;;;;;;;;5073720;28;20040;-82
2022/01/27 07:33:22;;;;;;;31.63;19.08;;;;;;;;;;5073201;28;20060;-81
2022/01/27 07:35:50;;;;;;;21.88;14.80;;;;;;;;;;5073526;28;20032;-82
2022/01/27 07:38:16;;;;;;;19.65;12.95;;;;;;;;;;5072712;28;20036;-82
2022/01/27 07:40:42;;;;;;;20.48;13.38;;;;;;;;;;5072246;28;20063;-81
2022/01/27 07:43:10;;;;;;;23.08;14.65;;;;;;;;;;5073358;28;20024;-81
2022/01/27 07:45:36;;;;;;;23.50;14.95;;;;;;;;;;5073846;28;20033;-82
2022/01/27 07:48:03;;;;;;;24.00;16.17;;;;;;;;;;5072972;28;20576;-82
2022/01/27 07:50:30;;;;;;;23.80;15.88;;;;;;;;;;5073260;28;20080;-79
2022/01/27 07:52:57;;;;;;;19.67;13.38;;;;;;;;;;5072308;28;20040;-82
2022/01/27 07:55:23;;;;;;;20.17;13.52;;;;;;;;;;5073280;28;20024;-81
2022/01/27 07:57:49;;;;;;;22.27;15.82;;;;;;;;;;5073246;28;20107;-83
2022/01/27 08:00:15;;;;;;;19.35;13.10;;;;;;;;;;5073270;28;20029;-80
2022/01/27 08:02:42;;;;;;;17.38;12.45;;;;;;;;;;5072981;28;20025;-81
2022/01/27 08:05:08;;;;;;;19.25;11.90;;;;;;;;;;5073015;28;20056;-81
2022/01/27 08:07:34;;;;;;;22.33;16.33;;;;;;;;;;5073697;28;20475;-82
2022/01/27 08:10:01;;;;;;;24.10;17.48;;;;;;;;;;5073643;28;20028;-81
2022/01/27 08:12:27;;;;;;;24.90;18.00;;;;;;;;;;5072461;28;20098;-82
2022/01/27 08:14:53;;;;;;;22.27;15.18;;;;;;;;;;5072746;28;20028;-82
2022/01/27 08:17:19;;;;;;;19.65;12.55;;;;;;;;;;5072281;28;20030;-82
2022/01/27 08:19:45;;;;;;;18.13;12.18;;;;;;;;;;5071972;28;20035;-80
2022/01/27 08:22:11;;;;;;;19.92;11.80;;;;;;;;;;5072222;28;20673;-82
2022/01/27 08:24:38;;;;;;;17.15;11.23;;;;;;;;;;5073238;28;20054;-80
2022/01/27 08:27:07;;;;;;;18.42;11.40;;;;;;;;;;5072499;28;20413;-82
2022/01/27 08:29:44;;;;;;;11.50;8.50;;;;;;;;;;5073877;28;20020;-83
2022/01/27 08:32:16;;;;;;;11.93;7.80;;;;;;;;;;5071948;28;20075;-81
2022/01/27 08:34:44;;;;;;;14.35;9.68;;;;;;;;;;5072684;28;20037;-83
2022/01/27 08:37:11;;;;;;;16.95;12.13;;;;;;;;;;5070160;28;20131;-81
2022/01/27 08:39:38;;;;;;;15.48;11.93;;;;;;;;;;5072791;28;20024;-82
2022/01/27 08:42:04;;;;;;;15.20;9.73;;;;;;;;;;5072208;28;20068;-84
2022/01/27 08:44:31;;;;;;;16.40;11.52;;;;;;;;;;5072751;28;20085;-83
2022/01/27 08:46:57;;;;;;;14.13;10.43;;;;;;;;;;5072048;28;20025;-84
2022/01/27 08:49:26;;;;;;;15.23;11.35;;;;;;;;;;5072218;28;20048;-84
2022/01/27 08:51:52;;;;;;;15.27;11.57;;;;;;;;;;5072375;28;20028;-81
2022/01/27 08:54:18;;;;;;;14.30;9.70;;;;;;;;;;5070557;28;20028;-82
2022/01/27 08:56:44;;;;;;;13.57;9.27;;;;;;;;;;5072367;28;20029;-82
2022/01/27 08:59:11;;;;;;;13.02;9.30;;;;;;;;;;5071547;28;20020;-84
2022/01/27 09:01:38;;;;;;;14.40;9.15;;;;;;;;;;5072210;28;20102;-85
2022/01/27 09:04:04;;;;;;;14.48;9.40;;;;;;;;;;5072129;28;20043;-80
2022/01/27 09:06:31;;;;;;;12.27;8.50;;;;;;;;;;5070545;28;20035;-81
2022/01/27 09:08:59;;;;;;;12.68;8.00;;;;;;;;;;5073652;28;20020;-81
2022/01/27 09:11:26;;;;;;;18.77;10.82;;;;;;;;;;5074526;28;20044;-84
2022/01/27 09:13:54;;;;;;;14.55;9.82;;;;;;;;;;5074645;28;20031;-81
2022/01/27 09:16:20;;;;;;;18.75;13.38;;;;;;;;;;5091542;28;20126;-82
2022/01/27 09:18:46;;;;;;;18.25;11.15;;;;;;;;;;5091303;28;20095;-82
2022/01/27 09:21:19;;;;;;;15.02;9.73;;;;;;;;;;5091113;28;20108;-85
2022/01/27 09:23:47;;;;;;;9.15;6.63;;;;;;;;;;5090755;28;20398;-82
2022/01/27 09:26:38;;;;;;;7.68;5.55;;;;;;;;;;5082314;28;20610;-80
2022/01/27 09:29:00;;;;;;;10.85;7.65;;;;;;;;;;5070673;28;20119;-81
2022/01/27 09:31:26;;;;;;;10.15;6.53;;;;;;;;;;5071160;28;20147;-81
2022/01/27 09:33:52;;;;;;;12.63;6.72;;;;;;;;;;5071864;28;20056;-81
2022/01/27 09:36:18;;;;;;;11.07;6.95;;;;;;;;;;5070936;28;20083;-80
2022/01/27 09:38:44;;;;;;;13.38;8.75;;;;;;;;;;5071353;28;20115;-82
2022/01/27 09:41:11;;;;;;;10.30;6.88;;;;;;;;;;5070708;28;20032;-84
2022/01/27 09:43:37;;;;;;;9.00;6.40;;;;;;;;;;5071936;28;20017;-85
2022/01/27 09:46:08;;;;;;;10.55;7.32;;;;;;;;;;5069065;28;20028;-83
2022/01/27 09:48:40;;;;;;;8.27;6.07;;;;;;;;;;5069753;28;20119;-81
2022/01/27 09:53:38;;;;;;;9.88;6.40;;;;;;;;;;5071492;28;20167;-78
2022/01/27 09:56:04;;;;;;;7.97;5.55;;;;;;;;;;5070721;28;20106;-70
2022/01/27 09:58:31;;;;;;;14.82;10.40;;;;;;;;;;5070789;28;20103;-84
2022/01/27 10:00:57;;;;;;;14.35;9.65;;;;;;;;;;5070800;28;20024;-81
2022/01/27 10:03:26;;;;;;;10.13;6.32;;;;;;;;;;5070923;28;20047;-80
2022/01/27 10:05:52;;;;;;;9.90;7.40;;;;;;;;;;5070627;28;20740;-83
2022/01/27 10:08:20;;;;;;;14.43;9.35;;;;;;;;;;5070884;28;20017;-81
2022/01/27 10:10:48;;;;;;;14.10;9.73;;;;;;;;;;5071225;28;20071;-85
2022/01/27 10:13:34;;;;;;;11.05;7.75;;;;;;;;;;5071580;28;20067;-81
2022/01/27 10:16:01;;;;;;;13.38;9.93;;;;;;;;;;5070956;28;20029;-84
2022/01/27 10:18:34;;;;;;;22.98;12.32;;;;;;;;;;5071152;28;20039;-82
2022/01/27 10:21:03;;;;;;;15.27;10.30;;;;;;;;;;5071488;28;20035;-85
2022/01/27 10:23:33;;;;;;;13.02;8.00;;;;;;;;;;5071127;28;20028;-85
2022/01/27 10:26:09;;;;;;;9.77;7.32;;;;;;;;;;5070032;28;20025;-88
2022/01/27 10:28:47;;;;;;;17.83;10.73;;;;;;;;;;5070995;28;20698;-83
2022/01/27 10:31:19;;;;;;;8.10;5.40;;;;;;;;;;5070052;28;20032;-86
2022/01/27 10:33:50;;;;;;;7.35;4.82;;;;;;;;;;5071479;28;20089;-84
2022/01/27 10:36:33;;;;;;;11.93;8.32;;;;;;;;;;5070981;28;20038;-87
2022/01/27 10:39:00;;;;;;;9.70;6.38;;;;;;;;;;5071256;28;20029;-83
2022/01/27 10:41:28;;;;;;;11.57;7.80;;;;;;;;;;5075333;28;20505;-84
2022/01/27 10:44:11;;;;;;;11.13;7.28;;;;;;;;;;5074293;28;20096;-82
2022/01/27 10:46:49;;;;;;;7.38;5.95;;;;;;;;;;5073184;28;20044;-80
2022/01/27 10:49:29;;;;;;;9.82;5.93;;;;;;;;;;5073027;28;20040;-82
2022/01/27 10:51:56;;;;;;;11.50;8.50;;;;;;;;;;5069864;28;20036;-85
2022/01/27 10:54:34;;;;;;;14.05;9.80;;;;;;;;;;5073921;28;20032;-76
2022/01/27 10:57:02;;;;;;;13.23;9.00;;;;;;;;;;5077378;28;20472;-84
2022/01/27 10:59:32;;;;;;;17.05;11.88;;;;;;;;;;5076591;28;20379;-84
2022/01/27 11:01:59;;;;;;;16.95;11.25;;;;;;;;;;5073740;28;20475;-83
2022/01/27 11:04:33;;;;;;;10.60;7.10;;;;;;;;;;5073468;28;20193;-83
2022/01/27 11:07:01;;;;;;;12.43;7.18;;;;;;;;;;5056068;28;20752;-83
2022/01/27 11:09:28;;;;;;;13.00;7.57;;;;;;;;;;5072694;28;20118;-86
2022/01/27 11:11:56;;;;;;;11.85;7.80;;;;;;;;;;5073752;28;20162;-83
2022/01/27 11:14:25;;;;;;;17.98;11.77;;;;;;;;;;5072385;28;20090;-81
2022/01/27 11:16:56;;;;;;;9.52;7.45;;;;;;;;;;5073743;28;20032;-81
2022/01/27 11:24:36;;;;;;;10.52;6.75;;;;;;;;;;5090323;28;20032;-82
2022/01/27 11:27:05;;;;;;;12.73;8.98;;;;;;;;;;5077983;28;20024;-86
2022/01/27 11:29:32;;;;;;;14.25;9.52;;;;;;;;;;5074744;28;20454;-86
2022/01/27 11:32:16;;;;;;;19.40;13.60;;;;;;;;;;5072711;28;20033;-82
2022/01/27 11:34:53;;;;;;;15.05;11.90;;;;;;;;;;5073576;28;20052;-85
2022/01/27 11:37:31;;;;;;;12.00;9.27;;;;;;;;;;5074094;28;20031;-83
2022/01/27 11:40:02;;;;;;;12.32;8.18;;;;;;;;;;5073718;28;20081;-83
2022/01/27 11:42:41;;;;;;;13.80;8.65;;;;;;;;;;5073431;28;20016;-83
2022/01/27 11:45:27;;;;;;;14.00;8.60;;;;;;;;;;5073397;28;20032;-83
2022/01/27 11:48:05;;;;;;;10.52;7.45;;;;;;;;;;5073259;28;20032;-84
2022/01/27 11:53:30;;;;;;;12.25;8.52;;;;;;;;;;5073828;28;20051;-87
2022/01/27 11:55:58;;;;;;;15.02;10.32;;;;;;;;;;5068276;28;20037;-85
2022/01/27 11:58:25;;;;;;;10.15;6.75;;;;;;;;;;5073665;28;20061;-86
2022/01/27 12:01:06;;;;;;;9.25;6.50;;;;;;;;;;5073387;28;20047;-87
2022/01/27 12:03:33;;;;;;;7.30;5.00;;;;;;;;;;5073249;28;20021;-83
2022/01/27 12:06:17;;;;;;;11.63;7.90;;;;;;;;;;5072872;28;20031;-87
2022/01/27 12:08:51;;;;;;;37.15;24.23;;;;;;;;;;5073187;28;20021;-86
2022/01/27 12:11:36;;;;;;;16.35;10.55;;;;;;;;;;5071512;28;20403;-82
2022/01/27 12:14:02;;;;;;;;;;;;;;;;;;5061546;28;20085;-81
2022/01/27 12:19:09;;;;;;;16.17;10.32;;;;;;;;;;5072431;28;20050;-83
2022/01/27 12:21:38;;;;;;;22.92;16.17;;;;;;;;;;5074157;28;20387;-84
2022/01/27 12:24:24;;;;;;;21.85;13.50;;;;;;;;;;5072831;28;20032;-79
2022/01/27 12:26:55;;;;;;;8.18;6.38;;;;;;;;;;5071727;28;20037;-81
2022/01/27 12:29:40;;;;;;;16.23;10.68;;;;;;;;;;5072817;28;20021;-85
2022/01/27 12:32:06;;;;;;;18.40;10.13;;;;;;;;;;5071975;28;20041;-77
2022/01/27 12:34:43;;;;;;;18.45;11.85;;;;;;;;;;5072817;28;20028;-81
2022/01/27 12:37:10;;;;;;;17.20;12.82;;;;;;;;;;5070512;28;20052;-82
2022/01/27 12:39:38;;;;;;;12.18;9.32;;;;;;;;;;5071828;28;20033;-78
2022/01/27 12:42:06;;;;;;;10.60;5.88;;;;;;;;;;5072389;28;20043;-81
2022/01/27 12:44:32;;;;;;;10.00;6.65;;;;;;;;;;5071920;28;20089;-79
2022/01/27 12:47:14;;;;;;;12.93;7.80;;;;;;;;;;5073060;28;20039;-80
2022/01/27 12:49:43;;;;;;;15.23;10.07;;;;;;;;;;5066298;28;20053;-81
2022/01/27 12:52:11;;;;;;;12.27;7.38;;;;;;;;;;5071531;28;20036;-74
2022/01/27 12:54:39;;;;;;;19.10;11.02;;;;;;;;;;5072012;28;20017;-84
2022/01/27 12:57:07;;;;;;;9.20;6.65;;;;;;;;;;5072991;28;20395;-82
2022/01/27 12:59:34;;;;;;;11.15;8.05;;;;;;;;;;5070702;28;20104;-82
2022/01/27 13:02:01;;;;;;;10.10;6.38;;;;;;;;;;5072608;28;20055;-82
2022/01/27 13:04:28;;;;;;;11.27;7.47;;;;;;;;;;5075998;28;20028;-79
2022/01/27 13:06:56;;;;;;;12.23;8.23;;;;;;;;;;5072976;28;20059;-82
2022/01/27 13:09:22;;;;;;;12.38;8.45;;;;;;;;;;5073221;28;20028;-83
2022/01/27 13:11:51;;;;;;;12.43;8.55;;;;;;;;;;5067821;28;20059;-82
2022/01/27 13:14:18;;;;;;;10.95;7.72;;;;;;;;;;5071380;28;20086;-80
2022/01/27 13:16:49;;;;;;;11.00;6.78;;;;;;;;;;5070195;28;20040;-81
2022/01/27 13:22:06;;;;;;;9.25;5.82;;;;;;;;;;5071641;28;20075;-78
2022/01/27 13:24:34;;;;;;;16.70;12.30;;;;;;;;;;5070223;28;20035;-82
2022/01/27 13:29:57;;;;;;;11.40;8.30;;;;;;;;;;5072250;28;20136;-78
2022/01/27 13:32:23;;;;;;;11.07;7.30;;;;;;;;;;5071359;28;20044;-85
2022/01/27 13:34:50;;;;;;;13.48;9.57;;;;;;;;;;5071825;28;20035;-75
2022/01/27 13:37:37;;;;;;;9.82;7.45;;;;;;;;;;5071850;28;20032;-83
2022/01/27 13:43:07;;;;;;;11.13;7.97;;;;;;;;;;5071718;28;20036;-82
2022/01/27 13:45:35;;;;;;;8.07;4.72;;;;;;;;;;5071724;28;20122;-84
2022/01/27 13:48:16;;;;;;;13.70;9.30;;;;;;;;;;5071883;28;20029;-83
2022/01/27 13:50:51;;;;;;;14.02;9.73;;;;;;;;;;5070049;28;20048;-87
2022/01/27 13:53:17;;;;;;;9.98;6.90;;;;;;;;;;5064044;28;20147;-79
2022/01/27 13:55:55;;;;;;;16.60;11.55;;;;;;;;;;5056047;28;20037;-84
2022/01/27 13:58:25;;;;;;;12.93;9.13;;;;;;;;;;5067415;28;20414;-81
2022/01/27 14:01:02;;;;;;;14.50;10.25;;;;;;;;;;5071290;28;20017;-82
2022/01/27 14:03:42;;;;;;;13.38;8.57;;;;;;;;;;5070704;28;20087;-85
2022/01/27 14:06:08;;;;;;;9.68;6.25;;;;;;;;;;5072180;28;20552;-80
2022/01/27 14:08:38;;;;;;;13.93;9.07;;;;;;;;;;5072285;28;20043;-70
2022/01/27 14:11:04;;;;;;;17.40;11.38;;;;;;;;;;5072212;28;20159;-81
2022/01/27 14:13:30;;;;;;;13.50;7.80;;;;;;;;;;5071764;28;20036;-85
2022/01/27 14:15:57;;;;;;;14.63;11.18;;;;;;;;;;5072560;28;20024;-83
2022/01/27 14:18:24;;;;;;;13.75;10.05;;;;;;;;;;5070967;28;20483;-82
2022/01/27 14:20:54;;;;;;;14.15;10.05;;;;;;;;;;5072658;28;20039;-83
2022/01/27 14:23:31;;;;;;;12.27;8.80;;;;;;;;;;5071128;28;20062;-84
2022/01/27 14:26:05;;;;;;;13.27;9.85;;;;;;;;;;5072208;28;20379;-83
2022/01/27 14:28:32;;;;;;;12.70;9.25;;;;;;;;;;5070946;28;20028;-83
2022/01/27 14:30:58;;;;;;;20.27;13.05;;;;;;;;;;5071775;28;20040;-81
2022/01/27 14:33:24;;;;;;;16.35;10.70;;;;;;;;;;5072753;28;20032;-83
2022/01/27 14:35:50;;;;;;;14.27;10.45;;;;;;;;;;5073876;28;20559;-84
2022/01/27 14:38:16;;;;;;;14.70;10.60;;;;;;;;;;5071103;28;20028;-81
2022/01/27 14:40:46;;;;;;;13.23;8.90;;;;;;;;;;5070637;28;20439;-83
2022/01/27 14:43:13;;;;;;;9.98;6.97;;;;;;;;;;5070614;28;20033;-81
2022/01/27 14:45:39;;;;;;;18.75;10.50;;;;;;;;;;5071721;28;20032;-81
2022/01/27 14:48:06;;;;;;;16.42;10.88;;;;;;;;;;5071779;28;20024;-82
2022/01/27 14:50:33;;;;;;;15.38;9.90;;;;;;;;;;5071529;28;20055;-82
2022/01/27 14:52:59;;;;;;;14.13;10.02;;;;;;;;;;5071982;28;20119;-83
2022/01/27 14:55:26;;;;;;;19.00;13.07;;;;;;;;;;5070366;28;20028;-81
2022/01/27 14:57:52;;;;;;;13.98;10.40;;;;;;;;;;5071422;28;20052;-83
2022/01/27 15:00:19;;;;;;;14.38;11.23;;;;;;;;;;5071771;28;20039;-80
2022/01/27 15:02:45;;;;;;;14.70;11.00;;;;;;;;;;5071710;28;20024;-81
2022/01/27 15:05:12;;;;;;;15.73;11.60;;;;;;;;;;5071909;28;20031;-83
2022/01/27 15:07:38;;;;;;;18.13;12.27;;;;;;;;;;5071834;28;20581;-83
2022/01/27 15:10:08;;;;;;;18.17;13.27;;;;;;;;;;5070415;28;20036;-82
2022/01/27 15:12:34;;;;;;;18.23;13.70;;;;;;;;;;5071399;28;20131;-80
2022/01/27 15:20:30;;;;;;;21.67;15.00;;;;;;;;;;5071505;28;20502;-83
2022/01/27 15:22:56;;;;;;;21.05;14.80;;;;;;;;;;5071312;28;20025;-83
2022/01/27 15:25:23;;;;;;;22.73;14.88;;;;;;;;;;5068628;28;20027;-83
2022/01/27 15:27:50;;;;;;;20.55;14.15;;;;;;;;;;5074319;28;20078;-83
2022/01/27 15:30:16;;;;;;;27.35;18.60;;;;;;;;;;5075165;28;20463;-81
2022/01/27 15:32:42;;;;;;;22.27;15.80;;;;;;;;;;5074750;28;20041;-84
2022/01/27 15:35:11;;;;;;;23.63;16.63;;;;;;;;;;5075417;28;20036;-82